Time;durP1;ratioP1;P1;durP2;ratioP2;P2;SDS_P1;SDS_P2;PMS_P1;PMS_P2;Temp;Humidity;BMP_temperature;BMP_pressure;BME280_temperature;BME280_humidity;BME280_pressure;Samples;Min_cycle;Max_cycle;Signal;HPM_P1;HPM_P2
2023/07/11 00:02:24;;;;;;;4.50;4.10;;;21.80;89.10;;;;;;5067443;28;20483;-79
2023/07/11 00:04:51;;;;;;;3.57;3.20;;;21.80;89.10;;;;;;5063688;28;20491;-78
2023/07/11 00:07:18;;;;;;;5.40;3.50;;;21.80;89.20;;;;;;5066874;28;20451;-81
2023/07/11 00:09:48;;;;;;;6.93;4.30;;;21.70;90.20;;;;;;5066207;28;20883;-79
2023/07/11 00:12:16;;;;;;;6.60;4.13;;;21.70;90.70;;;;;;5069904;28;20515;-78
2023/07/11 00:14:43;;;;;;;5.27;3.50;;;21.70;91.00;;;;;;5068110;28;20545;-76
2023/07/11 00:17:10;;;;;;;4.97;4.57;;;21.80;90.40;;;;;;5065933;28;21408;-80
2023/07/11 00:19:48;;;;;;;4.47;3.30;;;21.70;90.50;;;;;;5066714;28;20540;-80
2023/07/11 00:22:15;;;;;;;4.40;4.00;;;21.70;91.40;;;;;;5064454;28;20537;-79
2023/07/11 00:24:42;;;;;;;4.40;3.60;;;21.60;91.50;;;;;;5069225;28;20456;-78
2023/07/11 00:27:11;;;;;;;4.13;3.43;;;21.50;92.00;;;;;;5069962;28;22042;-79
2023/07/11 00:29:39;;;;;;;4.90;4.13;;;21.40;92.70;;;;;;5068045;28;20513;-79
2023/07/11 00:32:07;;;;;;;3.67;3.37;;;21.30;92.80;;;;;;5071888;28;20435;-78
2023/07/11 00:34:34;;;;;;;4.57;3.97;;;21.20;93.10;;;;;;5076414;28;20439;-78
2023/07/11 00:37:02;;;;;;;4.13;3.23;;;21.20;93.70;;;;;;5073482;28;21032;-78
2023/07/11 00:39:31;;;;;;;3.63;3.33;;;21.10;95.00;;;;;;5072092;28;20509;-80
2023/07/11 00:41:58;;;;;;;4.60;3.23;;;21.00;95.40;;;;;;5068045;28;20606;-77
2023/07/11 00:44:27;;;;;;;4.93;4.53;;;21.10;94.80;;;;;;5068003;28;20539;-78
2023/07/11 00:46:54;;;;;;;5.10;3.67;;;21.10;94.30;;;;;;5067272;28;20532;-78
2023/07/11 00:49:25;;;;;;;3.83;3.53;;;21.10;94.30;;;;;;5066906;28;20474;-81
2023/07/11 00:51:56;;;;;;;4.60;2.87;;;21.10;94.70;;;;;;5070807;28;20540;-79
2023/07/11 00:54:26;;;;;;;5.70;4.83;;;21.10;94.40;;;;;;5071115;28;20474;-81
2023/07/11 00:56:55;;;;;;;4.50;4.10;;;21.20;94.00;;;;;;5068847;28;20600;-79
2023/07/11 00:59:23;;;;;;;6.47;4.10;;;21.30;94.10;;;;;;5074048;28;20494;-77
2023/07/11 01:01:58;;;;;;;4.67;4.17;;;21.30;94.20;;;;;;5072837;28;20451;-77
2023/07/11 01:04:25;;;;;;;6.00;3.77;;;21.30;94.10;;;;;;5073036;28;20933;-76
2023/07/11 01:06:52;;;;;;;3.70;3.40;;;21.10;94.50;;;;;;5072679;28;20571;-79
2023/07/11 01:09:19;;;;;;;4.10;3.80;;;21.10;95.20;;;;;;5073816;28;20478;-76
2023/07/11 01:11:56;;;;;;;6.50;4.30;;;21.00;95.20;;;;;;5068559;28;20470;-76
2023/07/11 01:14:25;;;;;;;6.17;3.93;;;21.00;95.40;;;;;;5070795;28;20480;-76
2023/07/11 01:16:54;;;;;;;5.30;4.90;;;21.00;95.70;;;;;;5069744;28;20486;-78
2023/07/11 01:19:23;;;;;;;5.00;3.00;;;21.00;96.00;;;;;;5072242;28;20565;-75
2023/07/11 01:21:52;;;;;;;4.07;3.67;;;21.00;96.00;;;;;;5069577;27;20883;-75
2023/07/11 01:24:19;;;;;;;5.50;4.03;;;20.90;96.00;;;;;;5072752;27;20965;-76
2023/07/11 01:26:46;;;;;;;6.40;4.67;;;21.00;96.00;;;;;;5073886;28;20466;-78
2023/07/11 01:29:13;;;;;;;4.53;3.07;;;21.00;96.00;;;;;;5071409;28;20565;-76
2023/07/11 01:31:40;;;;;;;4.50;3.60;;;20.80;97.00;;;;;;5075132;28;21184;-78
2023/07/11 01:34:08;;;;;;;4.30;3.90;;;20.80;97.50;;;;;;5074013;28;20552;-75
2023/07/11 01:36:35;;;;;;;5.70;3.73;;;20.80;98.20;;;;;;5071392;27;20572;-75
2023/07/11 01:39:06;;;;;;;9.10;4.83;;;20.80;98.20;;;;;;5069693;28;20890;-76
2023/07/11 01:41:34;;;;;;;7.13;4.33;;;20.70;98.10;;;;;;5073657;28;20581;-78
2023/07/11 01:44:03;;;;;;;6.10;5.10;;;20.70;97.90;;;;;;5072326;28;20482;-77
2023/07/11 01:46:30;;;;;;;5.37;4.87;;;20.70;98.10;;;;;;5072353;28;20573;-79
2023/07/11 01:48:58;;;;;;;5.37;4.57;;;20.90;98.30;;;;;;5072214;28;20543;-77
2023/07/11 01:51:26;;;;;;;6.27;5.50;;;21.00;97.80;;;;;;5071068;28;20498;-78
2023/07/11 01:53:54;;;;;;;7.87;4.87;;;21.10;97.90;;;;;;5074097;27;20540;-77
2023/07/11 01:56:23;;;;;;;6.93;6.30;;;21.10;97.30;;;;;;5069648;28;20555;-76
2023/07/11 01:58:50;;;;;;;6.37;5.77;;;21.10;97.30;;;;;;5069862;27;20479;-80
2023/07/11 02:01:18;;;;;;;4.73;4.33;;;21.00;97.70;;;;;;5071449;28;20488;-78
2023/07/11 02:03:45;;;;;;;7.60;5.60;;;20.90;98.40;;;;;;5073311;28;20566;-77
2023/07/11 02:06:12;;;;;;;5.00;4.53;;;20.70;99.20;;;;;;5066107;28;20455;-78
2023/07/11 02:08:39;;;;;;;8.57;5.00;;;20.60;99.70;;;;;;5064505;28;20557;-79
2023/07/11 02:11:06;;;;;;;5.60;4.33;;;20.40;99.90;;;;;;5070880;27;20454;-79
2023/07/11 02:13:35;;;;;;;7.63;4.90;;;20.30;99.90;;;;;;5063383;28;20457;-80
2023/07/11 02:16:02;;;;;;;4.87;4.47;;;20.20;99.90;;;;;;5072855;28;20542;-78
2023/07/11 02:18:29;;;;;;;4.60;4.20;;;20.10;99.90;;;;;;5073292;28;20451;-77
2023/07/11 02:20:57;;;;;;;5.17;4.33;;;20.20;99.90;;;;;;5069660;28;20984;-77
2023/07/11 02:23:25;;;;;;;5.07;4.67;;;20.10;99.90;;;;;;5071752;28;20451;-79
2023/07/11 02:25:54;;;;;;;5.17;4.73;;;20.10;99.90;;;;;;5072626;28;20467;-78
2023/07/11 02:28:21;;;;;;;6.37;4.60;;;20.10;99.90;;;;;;5066953;28;20451;-77
2023/07/11 02:30:52;;;;;;;6.90;6.20;;;20.20;99.90;;;;;;5070557;28;20495;-80
2023/07/11 02:33:19;;;;;;;6.00;5.47;;;20.30;99.90;;;;;;5067392;28;20536;-80
2023/07/11 02:35:47;;;;;;;6.80;5.10;;;20.40;99.90;;;;;;5064879;28;20544;-79
2023/07/11 02:38:14;;;;;;;5.23;4.67;;;20.40;99.90;;;;;;5069856;28;20515;-80
2023/07/11 02:40:41;;;;;;;5.73;4.70;;;20.20;99.90;;;;;;5067914;28;20463;-78
2023/07/11 02:43:08;;;;;;;7.07;5.50;;;20.10;99.90;;;;;;5069148;28;20463;-80
2023/07/11 02:45:35;;;;;;;5.43;4.33;;;20.00;99.90;;;;;;5068152;28;20469;-80
2023/07/11 02:48:04;;;;;;;4.93;4.63;;;20.00;99.90;;;;;;5070408;28;21086;-78
2023/07/11 02:50:31;;;;;;;4.07;3.67;;;19.90;99.90;;;;;;5070414;28;20544;-80
2023/07/11 02:52:58;;;;;;;4.63;4.33;;;19.90;99.90;;;;;;5069493;28;20465;-77
2023/07/11 02:55:25;;;;;;;5.70;5.10;;;19.80;99.90;;;;;;5072071;28;20458;-79
2023/07/11 02:57:52;;;;;;;6.20;5.60;;;19.80;99.90;;;;;;5068931;28;20490;-78
2023/07/11 03:00:20;;;;;;;5.63;5.07;;;19.70;99.90;;;;;;5069901;28;20974;-78
2023/07/11 03:02:47;;;;;;;5.10;4.60;;;19.80;99.90;;;;;;5066704;28;20471;-79
2023/07/11 03:05:17;;;;;;;5.37;4.53;;;19.80;99.90;;;;;;5068937;28;20498;-77
2023/07/11 03:07:44;;;;;;;6.17;5.57;;;19.70;99.90;;;;;;5067692;28;20946;-78
2023/07/11 03:10:12;;;;;;;6.17;5.57;;;19.70;99.90;;;;;;5068204;28;20454;-78
2023/07/11 03:12:39;;;;;;;6.40;5.37;;;19.70;99.90;;;;;;5070213;28;20471;-79
2023/07/11 03:15:08;;;;;;;5.83;5.23;;;19.70;99.90;;;;;;5067617;28;20527;-77
2023/07/11 03:17:35;;;;;;;6.30;5.67;;;19.60;99.90;;;;;;5070136;28;21061;-78
2023/07/11 03:20:02;;;;;;;6.17;5.53;;;19.60;99.90;;;;;;5067112;27;21024;-80
2023/07/11 03:22:30;;;;;;;13.17;5.33;;;19.60;99.90;;;;;;5069527;28;20460;-78
2023/07/11 03:24:57;;;;;;;6.53;5.20;;;19.80;99.90;;;;;;5067116;27;21156;-78
2023/07/11 03:27:25;;;;;;;6.07;5.47;;;19.60;99.90;;;;;;5065712;28;20451;-79
2023/07/11 03:29:52;;;;;;;6.00;5.40;;;19.50;99.90;;;;;;5071872;28;21424;-77
2023/07/11 03:32:19;;;;;;;5.77;5.30;;;19.40;99.90;;;;;;5069430;28;21115;-80
2023/07/11 03:34:45;;;;;;;10.90;6.20;;;19.40;99.90;;;;;;5068329;27;20450;-78
2023/07/11 03:37:13;;;;;;;5.30;4.90;;;19.30;99.90;;;;;;5067025;28;20526;-78
2023/07/11 03:39:41;;;;;;;6.27;5.20;;;19.50;99.90;;;;;;5071822;28;20454;-77
2023/07/11 03:42:09;;;;;;;7.93;6.00;;;19.50;99.90;;;;;;5070285;28;20483;-75
2023/07/11 03:44:36;;;;;;;12.83;6.90;;;19.50;99.90;;;;;;5071858;28;21140;-79
2023/07/11 03:47:04;;;;;;;7.47;6.13;;;19.50;99.90;;;;;;5064124;28;21778;-76
2023/07/11 03:49:31;;;;;;;12.00;6.27;;;19.50;99.90;;;;;;5068955;28;21016;-77
2023/07/11 03:51:59;;;;;;;11.60;6.17;;;19.60;99.90;;;;;;5070081;28;20542;-77
2023/07/11 03:54:26;;;;;;;6.00;5.50;;;19.70;99.90;;;;;;5071586;27;20468;-77
2023/07/11 03:56:55;;;;;;;6.87;5.67;;;19.70;99.90;;;;;;5063491;28;21169;-77
2023/07/11 03:59:25;;;;;;;5.23;4.80;;;19.70;99.90;;;;;;5066927;28;20530;-78
2023/07/11 04:01:52;;;;;;;7.43;4.97;;;19.70;99.90;;;;;;5064815;28;20543;-79
2023/07/11 04:04:19;;;;;;;5.73;4.90;;;19.80;99.90;;;;;;5067432;28;21085;-78
2023/07/11 04:06:46;;;;;;;7.20;4.47;;;19.90;99.90;;;;;;5066936;28;20447;-79
2023/07/11 04:09:13;;;;;;;5.33;4.83;;;19.90;99.90;;;;;;5067940;28;20887;-77
2023/07/11 04:11:40;;;;;;;6.03;4.40;;;19.90;99.90;;;;;;5065149;28;21062;-77
2023/07/11 04:14:11;;;;;;;6.60;4.90;;;19.90;99.90;;;;;;5070994;28;20469;-77
2023/07/11 04:16:38;;;;;;;5.23;4.83;;;20.00;99.90;;;;;;5066415;28;20455;-76
2023/07/11 04:19:06;;;;;;;6.33;5.20;;;20.00;99.90;;;;;;5065795;28;20545;-76
2023/07/11 04:21:34;;;;;;;4.17;3.87;;;20.00;99.90;;;;;;5066065;28;20464;-80
2023/07/11 04:24:02;;;;;;;4.40;4.00;;;20.00;99.90;;;;;;5065848;28;20499;-77
2023/07/11 04:26:29;;;;;;;4.13;3.83;;;20.10;99.90;;;;;;5071328;28;20490;-76
2023/07/11 04:28:56;;;;;;;8.23;4.80;;;20.10;99.90;;;;;;5068937;28;20534;-77
2023/07/11 04:31:24;;;;;;;5.13;4.60;;;20.10;99.90;;;;;;5068540;28;20558;-77
2023/07/11 04:33:51;;;;;;;5.10;4.70;;;20.20;99.90;;;;;;5066028;28;20502;-77
2023/07/11 04:36:18;;;;;;;5.50;5.07;;;20.40;99.90;;;;;;5067959;28;20466;-76
2023/07/11 04:38:46;;;;;;;6.87;4.43;;;20.30;99.90;;;;;;5064107;28;20514;-79
2023/07/11 04:41:12;;;;;;;5.07;4.57;;;20.30;99.90;;;;;;5064695;28;20628;-80
2023/07/11 04:43:41;;;;;;;6.73;5.20;;;20.50;99.90;;;;;;5070223;28;20548;-77
2023/07/11 04:46:10;;;;;;;5.43;4.93;;;20.70;99.90;;;;;;5062663;28;20472;-79
2023/07/11 04:48:38;;;;;;;5.50;5.00;;;20.90;99.90;;;;;;5066415;28;20447;-77
2023/07/11 04:51:10;;;;;;;7.20;5.70;;;21.00;99.90;;;;;;5067369;28;20487;-77
2023/07/11 04:53:38;;;;;;;4.90;4.50;;;20.90;99.90;;;;;;5069339;28;20788;-77
2023/07/11 04:56:08;;;;;;;5.57;5.00;;;20.90;99.90;;;;;;5067389;28;20826;-79
2023/07/11 04:58:36;;;;;;;5.93;5.33;;;20.90;99.90;;;;;;5070713;28;20914;-76
2023/07/11 05:01:05;;;;;;;5.90;5.00;;;21.00;99.90;;;;;;5065965;28;20479;-76
2023/07/11 05:03:32;;;;;;;6.00;4.70;;;21.10;99.90;;;;;;5067886;28;20512;-79
2023/07/11 05:06:04;;;;;;;5.10;4.70;;;21.30;99.90;;;;;;5068195;28;20515;-76
2023/07/11 05:08:31;;;;;;;5.07;4.70;;;21.70;99.90;;;;;;5071938;28;20450;-79
2023/07/11 05:11:02;;;;;;;5.00;4.53;;;21.70;99.90;;;;;;5071247;28;20474;-76
2023/07/11 05:13:29;;;;;;;5.40;5.00;;;21.70;99.90;;;;;;5064895;28;20451;-78
2023/07/11 05:16:00;;;;;;;5.53;5.03;;;21.80;99.90;;;;;;5069434;28;20552;-77
2023/07/11 05:18:28;;;;;;;5.90;5.40;;;21.70;99.90;;;;;;5065596;28;20585;-78
2023/07/11 05:20:55;;;;;;;7.77;5.60;;;21.80;99.90;;;;;;5065825;28;20516;-76
2023/07/11 05:23:25;;;;;;;6.67;5.27;;;21.80;99.90;;;;;;5072431;28;20555;-76
2023/07/11 05:25:52;;;;;;;7.57;5.60;;;21.90;99.90;;;;;;5067844;28;20575;-78
2023/07/11 05:28:19;;;;;;;6.03;5.43;;;21.80;99.90;;;;;;5069657;28;20499;-76
2023/07/11 05:30:46;;;;;;;8.27;6.13;;;21.90;99.90;;;;;;5068810;28;20475;-77
2023/07/11 05:33:14;;;;;;;8.57;6.40;;;22.10;99.90;;;;;;5065537;28;20544;-76
2023/07/11 05:35:46;;;;;;;6.57;6.07;;;22.00;99.90;;;;;;5064988;28;20475;-77
2023/07/11 05:38:14;;;;;;;7.73;6.97;;;22.40;99.90;;;;;;5061621;28;20505;-77
2023/07/11 05:40:43;;;;;;;5.30;4.80;;;22.70;99.90;;;;;;5068520;28;20504;-77
2023/07/11 05:43:10;;;;;;;9.47;7.27;;;22.90;99.80;;;;;;5069639;28;20495;-78
2023/07/11 05:45:37;;;;;;;6.83;6.23;;;23.00;98.50;;;;;;5070010;27;20459;-78
2023/07/11 05:48:05;;;;;;;9.20;6.77;;;23.10;98.10;;;;;;5068113;28;21051;-78
2023/07/11 05:50:32;;;;;;;7.27;6.17;;;23.30;97.10;;;;;;5068042;28;20859;-77
2023/07/11 05:52:59;;;;;;;8.20;6.57;;;23.40;97.90;;;;;;5070979;28;20471;-77
2023/07/11 05:55:26;;;;;;;8.70;7.33;;;23.60;96.30;;;;;;5069013;28;20463;-76
2023/07/11 05:57:54;;;;;;;7.40;6.80;;;23.60;96.10;;;;;;5069580;28;20526;-76
2023/07/11 06:00:23;;;;;;;7.63;6.17;;;23.70;95.10;;;;;;5069137;28;20461;-78
2023/07/11 06:02:50;;;;;;;7.47;6.90;;;23.90;95.10;;;;;;5069544;27;20536;-77
2023/07/11 06:05:17;;;;;;;9.00;7.57;;;24.10;94.20;;;;;;5069760;28;20480;-76
2023/07/11 06:07:45;;;;;;;7.37;6.00;;;24.10;93.60;;;;;;5071241;28;20484;-78
2023/07/11 06:10:12;;;;;;;9.50;8.37;;;24.30;92.90;;;;;;5067689;27;20573;-78
2023/07/11 06:12:39;;;;;;;10.87;7.83;;;24.40;92.60;;;;;;5068430;28;20577;-77
2023/07/11 06:15:08;;;;;;;8.20;7.43;;;24.50;91.70;;;;;;5066448;28;20546;-78
2023/07/11 06:17:35;;;;;;;10.20;7.80;;;24.10;92.80;;;;;;5064869;28;20498;-78
2023/07/11 06:20:03;;;;;;;8.83;7.70;;;24.30;93.90;;;;;;5070282;28;20519;-77
2023/07/11 06:22:30;;;;;;;7.97;7.40;;;24.40;93.20;;;;;;5067711;28;20522;-78
2023/07/11 06:24:59;;;;;;;9.57;8.67;;;24.60;92.20;;;;;;5071627;28;20509;-77
2023/07/11 06:27:26;;;;;;;8.90;8.20;;;24.30;92.10;;;;;;5070345;28;20473;-77
2023/07/11 06:29:53;;;;;;;9.70;8.57;;;24.40;92.40;;;;;;5070665;28;20562;-78
2023/07/11 06:32:21;;;;;;;7.97;7.27;;;24.40;93.40;;;;;;5067585;27;21115;-76
2023/07/11 06:34:48;;;;;;;10.00;8.30;;;24.30;93.00;;;;;;5068301;27;20964;-77
2023/07/11 06:37:15;;;;;;;10.17;9.10;;;24.40;92.90;;;;;;5065701;27;21059;-78
2023/07/11 06:39:46;;;;;;;9.43;8.73;;;24.80;93.10;;;;;;5068031;27;20521;-78
2023/07/11 06:42:14;;;;;;;8.67;8.07;;;24.90;93.30;;;;;;5066379;28;20471;-77
2023/07/11 06:44:41;;;;;;;8.83;7.90;;;25.10;92.80;;;;;;5068903;27;21014;-76
2023/07/11 06:47:08;;;;;;;8.23;7.53;;;25.00;91.10;;;;;;5067171;28;21590;-78
2023/07/11 06:49:37;;;;;;;9.63;8.63;;;25.30;91.60;;;;;;5065558;28;20533;-78
2023/07/11 06:52:04;;;;;;;9.10;8.20;;;25.40;91.90;;;;;;5060319;28;20583;-78
2023/07/11 06:54:31;;;;;;;8.80;8.00;;;25.70;88.40;;;;;;5064689;27;20495;-78
2023/07/11 06:56:59;;;;;;;8.83;7.73;;;25.50;89.80;;;;;;5065137;28;21879;-78
2023/07/11 06:59:27;;;;;;;7.77;7.00;;;25.60;89.90;;;;;;5064039;28;20616;-77
2023/07/11 07:01:54;;;;;;;8.17;7.27;;;25.70;88.40;;;;;;5067411;28;20542;-78
2023/07/11 07:04:21;;;;;;;8.23;7.30;;;25.60;88.00;;;;;;5063308;28;21524;-75
2023/07/11 07:06:49;;;;;;;10.40;7.50;;;25.50;89.00;;;;;;5063134;28;20502;-75
2023/07/11 07:09:16;;;;;;;7.00;6.37;;;25.60;90.50;;;;;;5066148;28;20479;-79
2023/07/11 07:11:43;;;;;;;8.53;6.70;;;26.10;86.60;;;;;;5066128;28;20473;-79
2023/07/11 07:14:11;;;;;;;8.13;6.97;;;26.40;83.70;;;;;;5066026;28;20627;-77
2023/07/11 07:16:39;;;;;;;8.47;7.30;;;26.80;80.30;;;;;;5067010;28;20451;-77
2023/07/11 07:19:08;;;;;;;7.23;6.63;;;26.80;78.50;;;;;;5062981;28;20559;-78
2023/07/11 07:21:35;;;;;;;14.93;7.00;;;26.70;76.50;;;;;;5069113;28;20523;-78
2023/07/11 07:24:04;;;;;;;7.87;7.27;;;26.50;81.70;;;;;;5066159;28;22061;-77
2023/07/11 07:26:31;;;;;;;8.80;6.80;;;26.60;79.10;;;;;;5065524;27;20824;-78
2023/07/11 07:28:58;;;;;;;7.23;6.63;;;26.50;78.90;;;;;;5064326;28;20551;-80
2023/07/11 07:31:26;;;;;;;8.07;7.17;;;26.20;82.30;;;;;;5066607;28;21013;-76
2023/07/11 07:33:53;;;;;;;9.60;7.00;;;26.30;81.60;;;;;;5067997;28;20550;-78
2023/07/11 07:36:20;;;;;;;8.90;7.20;;;26.50;80.00;;;;;;5062574;28;20447;-80
2023/07/11 07:38:47;;;;;;;9.70;7.27;;;26.80;83.50;;;;;;5065937;28;20508;-77
2023/07/11 07:41:16;;;;;;;12.23;7.90;;;26.80;78.70;;;;;;5068960;28;20530;-79
2023/07/11 07:43:43;;;;;;;8.33;6.53;;;27.00;77.90;;;;;;5066874;28;20481;-77
2023/07/11 07:46:13;;;;;;;7.30;6.73;;;27.60;74.30;;;;;;5064973;27;20475;-79
2023/07/11 07:48:40;;;;;;;15.80;7.60;;;27.90;69.50;;;;;;5071717;28;20558;-76
2023/07/11 07:51:11;;;;;;;6.77;6.17;;;27.50;74.50;;;;;;5065242;28;20486;-78
2023/07/11 07:53:38;;;;;;;6.77;6.20;;;27.80;73.10;;;;;;5064168;28;20986;-78
2023/07/11 07:56:06;;;;;;;8.43;7.60;;;28.20;70.20;;;;;;5066366;28;20545;-77
2023/07/11 07:58:35;;;;;;;6.80;6.20;;;28.50;69.10;;;;;;5063493;27;20580;-77
2023/07/11 08:01:04;;;;;;;10.80;7.03;;;28.10;68.10;;;;;;5066872;28;20449;-79
2023/07/11 08:03:31;;;;;;;8.07;7.27;;;27.70;71.40;;;;;;5067447;28;20485;-79
2023/07/11 08:05:59;;;;;;;7.43;6.67;;;28.00;69.40;;;;;;5066844;28;20501;-77
2023/07/11 08:08:26;;;;;;;8.30;7.50;;;27.10;70.50;;;;;;5065398;28;20555;-79
2023/07/11 08:10:53;;;;;;;6.67;5.97;;;27.50;70.10;;;;;;5069403;28;20557;-77
2023/07/11 08:13:20;;;;;;;6.17;5.73;;;27.60;67.20;;;;;;5063879;28;20546;-79
2023/07/11 08:15:49;;;;;;;7.20;6.60;;;27.90;66.60;;;;;;5064747;28;20514;-78
2023/07/11 08:18:15;;;;;;;5.90;5.37;;;28.10;62.20;;;;;;5066847;28;20553;-78
2023/07/11 08:20:42;;;;;;;6.23;5.80;;;28.60;64.20;;;;;;5064630;28;21008;-77
2023/07/11 08:23:09;;;;;;;8.33;6.67;;;28.40;62.30;;;;;;5064861;27;20519;-77
2023/07/11 08:25:36;;;;;;;8.77;8.17;;;28.60;62.40;;;;;;5064549;28;20602;-77
2023/07/11 08:28:07;;;;;;;7.70;7.10;;;29.00;59.10;;;;;;5067417;28;21469;-78
2023/07/11 08:30:35;;;;;;;6.73;6.20;;;29.20;56.50;;;;;;5068177;28;22069;-77
2023/07/11 08:33:04;;;;;;;6.00;5.60;;;29.60;59.00;;;;;;5067842;27;20484;-77
2023/07/11 08:35:31;;;;;;;6.80;5.80;;;30.00;57.70;;;;;;5067127;28;20477;-78
2023/07/11 08:37:58;;;;;;;8.40;7.50;;;29.80;54.30;;;;;;5061560;28;20881;-79
2023/07/11 08:40:40;;;;;;;6.60;6.10;;;29.40;53.90;;;;;;5066733;28;20556;-77
2023/07/11 08:43:08;;;;;;;12.03;6.10;;;29.30;56.90;;;;;;5062881;28;20565;-79
2023/07/11 08:45:41;;;;;;;5.83;5.37;;;29.50;54.10;;;;;;5065610;28;20455;-79
2023/07/11 08:48:17;;;;;;;11.03;9.73;;;29.60;56.00;;;;;;5065252;28;20475;-79
2023/07/11 08:50:53;;;;;;;7.00;6.50;;;30.00;54.30;;;;;;5065129;28;20494;-77
2023/07/11 08:53:27;;;;;;;7.60;6.90;;;29.60;53.60;;;;;;5064770;28;20450;-78
2023/07/11 08:55:56;;;;;;;6.53;5.90;;;29.50;52.80;;;;;;5064112;28;20523;-78
2023/07/11 08:58:30;;;;;;;9.87;6.10;;;29.90;56.00;;;;;;5060442;28;20957;-77
2023/07/11 09:00:58;;;;;;;8.30;7.53;;;29.60;53.10;;;;;;5064980;28;20458;-77
2023/07/11 09:03:32;;;;;;;5.80;5.30;;;29.80;52.70;;;;;;5063282;28;20548;-78
2023/07/11 09:06:04;;;;;;;9.43;5.93;;;29.60;51.40;;;;;;5063797;28;21102;-77
2023/07/11 09:08:32;;;;;;;5.80;5.40;;;29.50;53.60;;;;;;5066506;28;20447;-80
2023/07/11 09:11:06;;;;;;;6.80;6.20;;;30.00;50.40;;;;;;5064665;28;21271;-80
2023/07/11 09:13:51;;;;;;;6.40;5.90;;;30.50;50.00;;;;;;5066007;28;21056;-77
2023/07/11 09:16:31;;;;;;;7.37;4.90;;;30.30;45.20;;;;;;5068030;28;20482;-76
2023/07/11 09:19:07;;;;;;;7.43;5.97;;;29.80;45.90;;;;;;5071170;28;21086;-78
2023/07/11 09:21:40;;;;;;;6.87;6.10;;;29.90;49.30;;;;;;5067704;28;21232;-77
2023/07/11 09:24:19;;;;;;;7.03;6.43;;;30.10;49.90;;;;;;5073693;28;20489;-78
2023/07/11 09:26:49;;;;;;;6.63;5.60;;;30.30;49.10;;;;;;5072480;27;20484;-77
2023/07/11 09:29:17;;;;;;;7.03;6.30;;;30.20;51.30;;;;;;5065748;28;21268;-77
2023/07/11 09:31:48;;;;;;;7.33;6.70;;;30.30;47.40;;;;;;5072709;28;20530;-79
2023/07/11 09:34:22;;;;;;;6.30;5.37;;;30.60;51.30;;;;;;5071482;27;21153;-78
2023/07/11 09:36:51;;;;;;;8.30;7.60;;;30.60;45.40;;;;;;5068793;28;21716;-79
2023/07/11 09:39:30;;;;;;;6.30;5.90;;;30.10;47.60;;;;;;5067846;28;20493;-80
2023/07/11 09:42:02;;;;;;;6.47;5.80;;;30.10;48.90;;;;;;5064085;28;21200;-80
2023/07/11 09:44:29;;;;;;;6.33;5.73;;;30.60;47.20;;;;;;5068542;28;20517;-79
2023/07/11 09:46:56;;;;;;;6.23;5.83;;;31.10;45.60;;;;;;5068539;28;20865;-77
2023/07/11 09:49:29;;;;;;;5.83;5.43;;;31.00;42.10;;;;;;5069602;28;20546;-78
2023/07/11 09:51:59;;;;;;;6.53;6.03;;;30.80;43.20;;;;;;5070267;28;20462;-79
2023/07/11 09:54:28;;;;;;;7.33;6.83;;;30.90;46.10;;;;;;5066342;28;20442;-77
2023/07/11 09:56:56;;;;;;;10.07;7.00;;;31.00;48.80;;;;;;5070458;28;20470;-80
2023/07/11 09:59:23;;;;;;;6.77;6.20;;;31.20;46.60;;;;;;5069570;28;20486;-77
2023/07/11 10:01:53;;;;;;;6.90;6.40;;;31.10;42.60;;;;;;5068203;28;21072;-77
2023/07/11 10:04:24;;;;;;;7.50;6.20;;;31.10;40.90;;;;;;5064780;28;20501;-79
2023/07/11 10:06:57;;;;;;;6.23;5.73;;;31.40;40.70;;;;;;5070810;28;20491;-78
2023/07/11 10:09:29;;;;;;;6.53;5.97;;;31.30;44.00;;;;;;5069941;28;20533;-78
2023/07/11 10:11:58;;;;;;;6.10;5.70;;;31.00;41.70;;;;;;5065375;28;20470;-79
2023/07/11 10:14:28;;;;;;;7.20;6.50;;;31.10;40.10;;;;;;5066917;28;21510;-77
2023/07/11 10:16:57;;;;;;;5.20;4.73;;;31.10;40.90;;;;;;5068687;28;20552;-77
2023/07/11 10:19:27;;;;;;;6.47;5.83;;;31.30;37.70;;;;;;5069351;28;20523;-76
2023/07/11 10:21:59;;;;;;;6.27;5.77;;;31.20;37.40;;;;;;5068647;27;20456;-80
2023/07/11 10:24:33;;;;;;;7.20;5.67;;;31.20;38.50;;;;;;5070484;27;20442;-77
2023/07/11 10:27:06;;;;;;;7.97;6.50;;;31.20;39.60;;;;;;5063476;28;20527;-77
2023/07/11 10:29:44;;;;;;;8.53;5.90;;;31.50;40.10;;;;;;5066627;28;20514;-77
2023/07/11 10:32:17;;;;;;;8.20;7.60;;;31.50;38.60;;;;;;5064425;27;20944;-77
2023/07/11 10:34:51;;;;;;;5.73;5.33;;;31.90;39.90;;;;;;5065935;28;20464;-77
2023/07/11 10:37:27;;;;;;;5.23;4.70;;;32.20;38.20;;;;;;5067919;28;20923;-78
2023/07/11 10:39:58;;;;;;;7.53;6.10;;;32.40;37.60;;;;;;5065259;28;20589;-76
2023/07/11 10:42:32;;;;;;;5.83;5.43;;;32.20;36.00;;;;;;5062944;28;21053;-78
2023/07/11 10:45:08;;;;;;;6.60;4.90;;;32.00;31.80;;;;;;5068227;28;20498;-77
2023/07/11 10:47:39;;;;;;;7.37;5.67;;;32.10;32.90;;;;;;5069129;28;20950;-77
2023/07/11 10:50:22;;;;;;;5.60;4.53;;;32.40;38.80;;;;;;5071506;28;21099;-77
2023/07/11 10:52:54;;;;;;;6.90;6.20;;;32.60;35.60;;;;;;5066315;28;20446;-76
2023/07/11 10:55:28;;;;;;;6.20;5.70;;;32.40;38.30;;;;;;5068394;28;20536;-76
2023/07/11 10:57:57;;;;;;;5.00;4.60;;;32.50;36.50;;;;;;5069340;28;20516;-76
2023/07/11 11:00:38;;;;;;;5.13;4.73;;;32.80;39.30;;;;;;5068337;28;20483;-76
2023/07/11 11:03:16;;;;;;;8.53;5.00;;;33.10;32.90;;;;;;5064057;28;20502;-76
2023/07/11 11:05:56;;;;;;;6.07;5.57;;;33.40;29.90;;;;;;5067761;28;20463;-76
2023/07/11 11:08:34;;;;;;;6.23;5.67;;;33.20;32.40;;;;;;5062488;28;20562;-80
2023/07/11 11:11:10;;;;;;;5.70;5.20;;;32.80;33.50;;;;;;5057998;28;20506;-78
2023/07/11 11:13:46;;;;;;;7.90;5.10;;;32.80;32.30;;;;;;5066262;28;20969;-79
2023/07/11 11:16:23;;;;;;;4.20;3.90;;;32.80;31.60;;;;;;5063399;28;20488;-80
2023/07/11 11:19:04;;;;;;;6.63;6.03;;;32.20;35.40;;;;;;5061670;27;20537;-77
2023/07/11 11:21:40;;;;;;;16.03;6.03;;;32.90;36.50;;;;;;5066267;27;20457;-80
2023/07/11 11:24:26;;;;;;;5.03;4.63;;;33.30;33.70;;;;;;5067624;28;21098;-79
2023/07/11 11:27:01;;;;;;;5.80;4.30;;;33.50;30.30;;;;;;5064722;27;20648;-77
2023/07/11 11:29:42;;;;;;;5.50;5.10;;;33.80;32.40;;;;;;5063765;28;20540;-78
2023/07/11 11:32:20;;;;;;;5.90;5.40;;;34.00;31.10;;;;;;5061366;28;20498;-78
2023/07/11 11:35:14;;;;;;;6.80;5.50;;;33.90;28.30;;;;;;5066199;28;20453;-79
2023/07/11 11:38:04;;;;;;;5.87;5.23;;;33.40;30.20;;;;;;5063231;28;20479;-78
2023/07/11 11:40:35;;;;;;;4.97;4.67;;;33.20;30.90;;;;;;5068791;28;20487;-77
2023/07/11 11:43:05;;;;;;;5.20;4.70;;;33.50;31.20;;;;;;5064485;28;20549;-77
2023/07/11 11:45:33;;;;;;;5.63;5.30;;;33.70;31.50;;;;;;5063317;28;20597;-78
2023/07/11 11:48:03;;;;;;;5.63;5.27;;;33.60;30.00;;;;;;5064894;28;20475;-76
2023/07/11 11:50:34;;;;;;;5.00;4.53;;;33.40;29.90;;;;;;5064154;27;20466;-77
2023/07/11 11:56:02;;;;;;;5.17;4.77;;;33.30;29.40;;;;;;5069572;27;20564;-76
2023/07/11 11:58:32;;;;;;;7.17;5.60;;;33.90;31.60;;;;;;5069585;28;20538;-76
2023/07/11 12:01:00;;;;;;;7.57;5.37;;;34.20;29.60;;;;;;5069335;28;20491;-75
2023/07/11 12:03:29;;;;;;;5.93;5.43;;;33.90;28.20;;;;;;5069905;28;20446;-75
2023/07/11 12:05:59;;;;;;;5.80;5.27;;;33.80;29.70;;;;;;5069303;28;20578;-77
2023/07/11 12:08:35;;;;;;;5.80;5.10;;;33.30;31.20;;;;;;5071038;28;20525;-78
2023/07/11 12:11:29;;;;;;;5.80;5.30;;;33.80;31.20;;;;;;5068825;28;20527;-80
2023/07/11 12:14:24;;;;;;;4.97;4.57;;;34.20;30.30;;;;;;5067361;28;20482;-77
2023/07/11 12:16:53;;;;;;;5.80;5.20;;;34.40;28.30;;;;;;5068741;28;20474;-77
2023/07/11 12:19:30;;;;;;;4.40;4.10;;;34.70;28.70;;;;;;5070421;28;20455;-77
2023/07/11 12:22:07;;;;;;;5.23;4.80;;;34.30;26.80;;;;;;5070040;28;20478;-76
2023/07/11 12:24:45;;;;;;;6.37;5.80;;;34.30;28.90;;;;;;5067752;28;20569;-76
2023/07/11 12:27:43;;;;;;;6.57;5.67;;;34.40;28.10;;;;;;5069336;28;20830;-77
2023/07/11 12:30:48;;;;;;;5.63;4.87;;;34.50;27.70;;;;;;5070655;28;21204;-75
2023/07/11 12:33:38;;;;;;;6.10;5.60;;;34.10;26.90;;;;;;5069115;27;20490;-77
2023/07/11 12:36:35;;;;;;;5.43;5.13;;;34.50;29.00;;;;;;5070583;28;20466;-77
2023/07/11 12:39:21;;;;;;;6.20;5.73;;;35.00;27.60;;;;;;5070433;28;20535;-78
2023/07/11 12:41:57;;;;;;;5.87;5.43;;;35.30;25.40;;;;;;5070881;28;20497;-76
2023/07/11 12:44:24;;;;;;;6.50;6.00;;;35.00;27.90;;;;;;5069498;28;20456;-76
2023/07/11 12:46:52;;;;;;;6.43;5.83;;;34.70;25.90;;;;;;5072224;28;20472;-78
2023/07/11 12:49:25;;;;;;;5.60;5.20;;;34.80;25.30;;;;;;5070640;28;21530;-76
2023/07/11 12:51:52;;;;;;;5.70;5.27;;;34.70;27.30;;;;;;5071526;28;20469;-76
2023/07/11 12:54:24;;;;;;;5.80;5.30;;;34.60;28.00;;;;;;5071618;28;20582;-77
2023/07/11 12:56:54;;;;;;;5.40;5.00;;;34.60;27.80;;;;;;5070924;28;20479;-77
2023/07/11 12:59:23;;;;;;;5.60;5.10;;;34.00;27.10;;;;;;5072418;28;21024;-76
2023/07/11 13:01:51;;;;;;;14.27;5.57;;;34.30;26.60;;;;;;5071095;28;20470;-78
2023/07/11 13:04:28;;;;;;;5.53;5.13;;;34.20;26.60;;;;;;5070492;28;20459;-78